Time;durP1;ratioP1;P1;durP2;ratioP2;P2;SDS_P1;SDS_P2;PMS_P1;PMS_P2;Temp;Humidity;BMP_temperature;BMP_pressure;BME280_temperature;BME280_humidity;BME280_pressure;Samples;Min_cycle;Max_cycle;Signal;HPM_P1;HPM_P2
2022/04/07 00:01:09;;;;;;;2.95;2.33;;;9.30;99.90;;;;;;5067465;28;20049;-76
2022/04/07 00:03:36;;;;;;;;;;;9.30;99.90;;;;;;5081684;28;20127;-76
2022/04/07 00:06:09;;;;;;;3.05;2.03;;;9.20;99.90;;;;;;5047387;28;19921;-79
2022/04/07 00:08:38;;;;;;;5.55;2.53;;;9.30;99.90;;;;;;5066023;28;20059;-77
2022/04/07 00:11:04;;;;;;;5.50;2.83;;;9.30;99.90;;;;;;5065171;28;20470;-76
2022/04/07 00:13:32;;;;;;;2.08;1.85;;;9.30;99.90;;;;;;5055289;28;20111;-76
2022/04/07 00:15:59;;;;;;;6.85;2.58;;;9.30;99.90;;;;;;5056800;28;20060;-79
2022/04/07 00:18:26;;;;;;;9.07;3.20;;;9.30;99.90;;;;;;5071043;28;20167;-76
2022/04/07 00:20:52;;;;;;;2.72;1.67;;;9.30;99.90;;;;;;5025030;28;20375;-78
2022/04/07 00:23:22;;;;;;;4.30;2.17;;;9.30;99.90;;;;;;5023885;28;20056;-78
2022/04/07 00:25:49;;;;;;;5.68;1.15;;;9.20;99.90;;;;;;5050568;28;20115;-76
2022/04/07 00:28:17;;;;;;;6.90;2.38;;;9.20;99.90;;;;;;5069761;28;20047;-78
2022/04/07 00:30:44;;;;;;;1.73;1.10;;;9.20;99.90;;;;;;5051949;28;20051;-76
2022/04/07 00:33:12;;;;;;;5.97;2.35;;;9.20;99.90;;;;;;5051023;28;20093;-78
2022/04/07 00:35:39;;;;;;;7.50;1.83;;;9.10;99.90;;;;;;5035314;28;20474;-76
2022/04/07 00:38:05;;;;;;;1.75;1.58;;;9.10;99.90;;;;;;5068736;28;20497;-75
2022/04/07 00:40:31;;;;;;;2.25;1.50;;;9.10;99.90;;;;;;5066901;28;20123;-80
2022/04/07 00:42:57;;;;;;;7.20;2.25;;;9.10;99.90;;;;;;5052372;28;20044;-78
2022/04/07 00:45:23;;;;;;;3.95;1.70;;;9.10;99.90;;;;;;5079335;28;20409;-78
2022/04/07 00:47:51;;;;;;;4.05;1.73;;;9.10;99.90;;;;;;5042925;28;20110;-75
2022/04/07 00:50:19;;;;;;;4.38;1.23;;;9.20;99.90;;;;;;5060527;28;20041;-77
2022/04/07 00:52:50;;;;;;;1.60;1.13;;;9.20;99.90;;;;;;5080197;28;20046;-76
2022/04/07 00:55:19;;;;;;;3.63;1.65;;;9.10;99.90;;;;;;5059899;28;20046;-76
2022/04/07 00:57:46;;;;;;;2.33;1.20;;;9.10;99.90;;;;;;5056236;28;20504;-78
2022/04/07 01:00:13;;;;;;;1.33;1.13;;;9.10;99.90;;;;;;5060202;28;20041;-77
2022/04/07 01:02:42;;;;;;;6.47;2.28;;;9.20;99.90;;;;;;5074466;28;20248;-75
2022/04/07 01:05:10;;;;;;;5.38;1.63;;;9.20;99.90;;;;;;5072567;28;20041;-78
2022/04/07 01:07:37;;;;;;;6.88;1.50;;;9.10;99.90;;;;;;5071565;28;20422;-78
2022/04/07 01:10:08;;;;;;;1.48;1.15;;;9.20;99.90;;;;;;5062413;28;20490;-77
2022/04/07 01:12:37;;;;;;;3.60;1.25;;;9.10;99.90;;;;;;5071835;28;20124;-78
2022/04/07 01:15:08;;;;;;;12.05;3.05;;;9.10;99.90;;;;;;5063914;28;20109;-77
2022/04/07 01:17:34;;;;;;;3.95;1.70;;;9.10;99.90;;;;;;5073780;28;20040;-78
2022/04/07 01:20:04;;;;;;;;;;;9.10;99.90;;;;;;5032713;28;20068;-79
2022/04/07 01:22:31;;;;;;;2.03;1.42;;;9.10;99.90;;;;;;5070525;28;20276;-78
2022/04/07 01:24:58;;;;;;;3.53;2.03;;;9.00;99.90;;;;;;5068971;28;20538;-78
2022/04/07 01:27:24;;;;;;;7.63;2.13;;;9.00;99.90;;;;;;5057299;28;20054;-80
2022/04/07 01:29:52;;;;;;;6.55;1.48;;;9.00;99.90;;;;;;5074460;28;20497;-78
2022/04/07 01:32:41;;;;;;;4.13;1.63;;;8.90;99.90;;;;;;5072340;28;20496;-76
2022/04/07 01:35:08;;;;;;;6.70;2.67;;;8.80;99.90;;;;;;5074256;28;20102;-79
2022/04/07 01:37:42;;;;;;;2.22;0.77;;;8.70;99.90;;;;;;5055030;28;20063;-76
2022/04/07 01:40:10;;;;;;;3.13;1.40;;;8.60;99.90;;;;;;5074624;28;20050;-76
2022/04/07 01:42:38;;;;;;;1.38;1.27;;;8.50;99.90;;;;;;5076375;28;20048;-79
2022/04/07 01:45:06;;;;;;;1.08;0.90;;;8.50;99.90;;;;;;5077723;28;20045;-80
2022/04/07 01:47:35;;;;;;;0.68;0.68;;;8.40;99.90;;;;;;5076034;28;20055;-78
2022/04/07 01:50:10;;;;;;;6.00;2.20;;;8.50;99.90;;;;;;5073326;28;20040;-77
2022/04/07 01:52:39;;;;;;;4.97;2.05;;;8.30;99.90;;;;;;5077258;28;20050;-76
2022/04/07 01:55:07;;;;;;;3.10;1.58;;;8.40;99.90;;;;;;5073535;28;20163;-76
2022/04/07 01:57:34;;;;;;;6.63;2.63;;;8.40;99.90;;;;;;5069386;28;20036;-75
2022/04/07 02:00:00;;;;;;;9.02;3.08;;;8.50;99.90;;;;;;5072395;28;20040;-76
2022/04/07 02:02:26;;;;;;;4.15;2.72;;;8.50;99.90;;;;;;5071290;28;20047;-75
2022/04/07 02:04:55;;;;;;;;;;;8.60;99.90;;;;;;5054947;28;20041;-76
2022/04/07 02:07:31;;;;;;;6.93;2.17;;;8.60;99.90;;;;;;5053448;28;19916;-78
2022/04/07 02:10:04;;;;;;;6.63;2.10;;;8.70;99.90;;;;;;5064714;28;20090;-80
2022/04/07 02:12:30;;;;;;;9.68;3.47;;;8.70;99.90;;;;;;5075049;28;20094;-78
2022/04/07 02:14:59;;;;;;;7.00;3.15;;;8.70;99.90;;;;;;5055788;28;20088;-77
2022/04/07 02:17:25;;;;;;;8.38;3.45;;;8.70;99.90;;;;;;5038853;28;20476;-78
2022/04/07 02:19:56;;;;;;;5.18;2.45;;;8.80;99.90;;;;;;5074267;28;20084;-80
2022/04/07 02:22:22;;;;;;;2.72;1.95;;;8.80;99.90;;;;;;5056829;28;20114;-78
2022/04/07 02:24:48;;;;;;;14.60;3.88;;;8.90;99.90;;;;;;5071184;28;20463;-77
2022/04/07 02:27:15;;;;;;;3.50;2.22;;;8.90;99.90;;;;;;5065296;28;20037;-77
2022/04/07 02:29:42;;;;;;;9.23;2.70;;;8.80;99.90;;;;;;5070758;28;20048;-76
2022/04/07 02:32:08;;;;;;;9.73;1.90;;;8.80;99.90;;;;;;5061833;28;20082;-76
2022/04/07 02:34:35;;;;;;;11.55;1.95;;;8.90;99.90;;;;;;5071192;28;20486;-77
2022/04/07 02:37:01;;;;;;;4.10;1.60;;;8.80;99.90;;;;;;5055529;28;20094;-78
2022/04/07 02:39:27;;;;;;;4.57;2.28;;;8.80;99.90;;;;;;5070739;28;20067;-80
2022/04/07 02:41:53;;;;;;;6.55;2.80;;;8.80;99.90;;;;;;5053951;28;20079;-78
2022/04/07 02:44:21;;;;;;;15.43;3.10;;;8.80;99.90;;;;;;5071958;28;20497;-80
2022/04/07 02:46:48;;;;;;;9.98;2.85;;;8.90;99.90;;;;;;5055670;28;20068;-78
2022/04/07 02:49:14;;;;;;;8.82;2.10;;;8.90;99.90;;;;;;5054625;28;20029;-79
2022/04/07 02:51:40;;;;;;;2.35;1.75;;;8.90;99.90;;;;;;5052854;28;20040;-78
2022/04/07 02:54:08;;;;;;;3.45;1.50;;;8.90;99.90;;;;;;5062284;28;20032;-75
2022/04/07 02:56:34;;;;;;;10.63;2.13;;;8.90;99.90;;;;;;5067623;28;21319;-76
2022/04/07 02:59:01;;;;;;;10.43;2.45;;;8.80;99.90;;;;;;5079262;28;20048;-81
2022/04/07 03:01:28;;;;;;;5.15;2.53;;;8.80;99.90;;;;;;5067010;28;20048;-76
2022/04/07 03:03:55;;;;;;;7.25;2.40;;;8.80;99.90;;;;;;5053789;28;20057;-77
2022/04/07 03:06:25;;;;;;;4.97;2.40;;;8.80;99.90;;;;;;5054460;28;20105;-77
2022/04/07 03:08:51;;;;;;;7.85;2.78;;;8.90;99.90;;;;;;5067014;28;20064;-77
2022/04/07 03:11:17;;;;;;;4.88;2.15;;;8.90;99.90;;;;;;5070266;28;20129;-78
2022/04/07 03:13:42;;;;;;;;;;;8.80;99.90;;;;;;5044687;28;20037;-80
2022/04/07 03:16:09;;;;;;;4.82;2.17;;;8.80;99.90;;;;;;5070704;28;20054;-78
2022/04/07 03:18:35;;;;;;;3.30;1.98;;;8.80;99.90;;;;;;5066928;28;20117;-77
2022/04/07 03:21:01;;;;;;;3.35;2.03;;;8.80;99.90;;;;;;5062153;28;20099;-76
2022/04/07 03:23:26;;;;;;;;;;;8.80;99.90;;;;;;5067169;28;20686;-78
2022/04/07 03:25:52;;;;;;;5.55;3.08;;;8.80;99.90;;;;;;5056797;28;19927;-76
2022/04/07 03:28:18;;;;;;;4.82;2.40;;;8.80;99.90;;;;;;5071864;28;20127;-78
2022/04/07 03:30:44;;;;;;;8.15;3.90;;;8.80;99.90;;;;;;5050655;28;20063;-78
2022/04/07 03:33:16;;;;;;;5.05;3.03;;;8.80;99.90;;;;;;5068899;28;20044;-80
2022/04/07 03:35:42;;;;;;;;;;;8.90;99.90;;;;;;5072659;28;20127;-77
2022/04/07 03:38:08;;;;;;;2.85;1.60;;;8.90;99.90;;;;;;5069985;28;19999;-81
2022/04/07 03:40:35;;;;;;;5.28;1.55;;;8.90;99.90;;;;;;5054498;28;20040;-78
2022/04/07 03:43:04;;;;;;;5.25;2.25;;;8.90;99.90;;;;;;5057778;28;20116;-79
2022/04/07 03:45:30;;;;;;;6.68;2.80;;;8.90;99.90;;;;;;5066527;28;20098;-80
2022/04/07 03:47:56;;;;;;;;;;;8.90;99.90;;;;;;5065390;28;20516;-76
2022/04/07 03:50:22;;;;;;;5.13;2.47;;;8.90;99.90;;;;;;5062786;28;19920;-77
2022/04/07 03:52:47;;;;;;;8.77;2.55;;;8.90;99.90;;;;;;5069018;28;20036;-77
2022/04/07 03:55:13;;;;;;;2.50;1.65;;;8.90;99.90;;;;;;5052906;28;20123;-75
2022/04/07 03:57:40;;;;;;;6.07;2.33;;;8.90;99.90;;;;;;5082161;28;20500;-78
2022/04/07 04:00:07;;;;;;;7.38;2.30;;;9.00;99.90;;;;;;5081643;28;20600;-77
2022/04/07 04:02:32;;;;;;;6.55;2.58;;;9.00;99.90;;;;;;5052939;28;20054;-77
2022/04/07 04:04:58;;;;;;;6.05;2.38;;;9.00;99.90;;;;;;5068057;28;20568;-77
2022/04/07 04:07:24;;;;;;;8.45;2.50;;;9.10;99.90;;;;;;5072387;28;20102;-78
2022/04/07 04:09:52;;;;;;;2.00;1.80;;;9.10;99.90;;;;;;5068878;28;20044;-76
2022/04/07 04:12:18;;;;;;;2.80;1.52;;;9.10;99.90;;;;;;5029937;28;20036;-77
2022/04/07 04:14:45;;;;;;;6.07;2.10;;;9.00;99.90;;;;;;5049263;28;20064;-76
2022/04/07 04:17:12;;;;;;;;;;;8.90;99.90;;;;;;5068508;28;20117;-76
2022/04/07 04:19:37;;;;;;;8.60;3.15;;;8.90;99.90;;;;;;5069394;28;19916;-77
2022/04/07 04:22:03;;;;;;;7.00;2.67;;;8.80;99.90;;;;;;5069268;28;20090;-77
2022/04/07 04:24:30;;;;;;;4.25;2.03;;;8.80;99.90;;;;;;5036250;28;20040;-76
2022/04/07 04:27:02;;;;;;;8.40;2.10;;;8.80;99.90;;;;;;5066854;28;20074;-80
2022/04/07 04:29:31;;;;;;;4.82;1.83;;;8.80;99.90;;;;;;5071321;28;20033;-78
2022/04/07 04:31:56;;;;;;;10.23;3.10;;;8.80;99.90;;;;;;5070329;28;20433;-76
2022/04/07 04:34:22;;;;;;;10.65;3.45;;;8.70;99.90;;;;;;5069699;28;20040;-76
2022/04/07 04:36:48;;;;;;;11.95;2.70;;;8.70;99.90;;;;;;5061945;28;20126;-77
2022/04/07 04:39:15;;;;;;;8.68;1.50;;;8.70;99.90;;;;;;5071230;28;20477;-76
2022/04/07 04:41:41;;;;;;;7.68;2.65;;;8.60;99.90;;;;;;5051390;28;20401;-77
2022/04/07 04:44:06;;;;;;;3.88;2.42;;;8.60;99.90;;;;;;5081521;28;20068;-76
2022/04/07 04:46:32;;;;;;;4.72;1.77;;;8.60;99.90;;;;;;5081201;28;20503;-80
2022/04/07 04:48:58;;;;;;;14.93;2.45;;;8.70;99.90;;;;;;5063207;28;20059;-76
2022/04/07 04:51:25;;;;;;;7.18;1.60;;;8.70;99.90;;;;;;5050497;28;20052;-79
2022/04/07 04:53:51;;;;;;;6.85;2.00;;;8.70;99.90;;;;;;5051333;28;20033;-76
2022/04/07 04:56:17;;;;;;;2.95;1.77;;;8.60;99.90;;;;;;5061220;28;20040;-81
2022/04/07 04:58:42;;;;;;;6.50;2.65;;;8.70;99.90;;;;;;5055299;28;20075;-80
2022/04/07 05:01:08;;;;;;;9.13;2.50;;;8.70;99.90;;;;;;5052555;28;20045;-77
2022/04/07 05:03:34;;;;;;;12.68;2.83;;;8.60;99.90;;;;;;5076686;28;20120;-79
2022/04/07 05:05:59;;;;;;;6.22;2.92;;;8.60;99.90;;;;;;5071060;28;20076;-77
2022/04/07 05:08:25;;;;;;;3.63;1.58;;;8.60;99.90;;;;;;5071695;28;20483;-76
2022/04/07 05:10:51;;;;;;;2.05;1.65;;;8.50;99.90;;;;;;5067258;28;20040;-78
2022/04/07 05:13:16;;;;;;;15.35;2.13;;;8.40;99.90;;;;;;5068484;28;20036;-76
2022/04/07 05:15:42;;;;;;;6.65;3.50;;;8.40;99.90;;;;;;5050449;28;20098;-79
2022/04/07 05:18:08;;;;;;;4.13;2.08;;;8.30;99.90;;;;;;5071246;28;20059;-81
2022/04/07 05:20:33;;;;;;;4.97;2.30;;;8.30;99.90;;;;;;5068398;28;20033;-76
2022/04/07 05:22:59;;;;;;;14.30;3.15;;;8.40;99.90;;;;;;5067728;28;20110;-75
2022/04/07 05:25:25;;;;;;;6.80;2.60;;;8.30;99.90;;;;;;5065617;28;20045;-77
2022/04/07 05:27:50;;;;;;;11.40;1.90;;;8.30;99.90;;;;;;5038437;28;20037;-76
2022/04/07 05:30:16;;;;;;;2.22;1.38;;;8.00;99.90;;;;;;5053594;28;20340;-78
2022/04/07 05:32:43;;;;;;;1.35;0.98;;;7.80;99.90;;;;;;5053941;28;20089;-79
2022/04/07 05:35:11;;;;;;;4.53;1.50;;;7.40;99.90;;;;;;5069212;28;20323;-80
2022/04/07 05:37:37;;;;;;;2.88;1.45;;;7.10;99.90;;;;;;5061480;28;20047;-80
2022/04/07 05:40:03;;;;;;;3.35;1.35;;;6.70;99.90;;;;;;5048203;28;20068;-85
2022/04/07 05:42:31;;;;;;;2.35;0.90;;;6.50;99.90;;;;;;5072889;28;20045;-83
2022/04/07 05:44:57;;;;;;;3.35;1.17;;;6.40;99.90;;;;;;5054068;28;20501;-80
2022/04/07 05:47:23;;;;;;;1.33;0.98;;;6.20;99.90;;;;;;5055228;28;20111;-81
2022/04/07 05:49:48;;;;;;;1.17;0.93;;;6.20;99.90;;;;;;5070605;28;20036;-81
2022/04/07 05:52:14;;;;;;;3.53;1.58;;;6.20;99.90;;;;;;5051209;28;20059;-77
2022/04/07 05:54:40;;;;;;;4.25;1.60;;;6.10;99.90;;;;;;5037150;28;20193;-82
2022/04/07 05:57:06;;;;;;;3.33;1.42;;;6.10;99.90;;;;;;5049326;28;20052;-82
2022/04/07 05:59:32;;;;;;;;;;;6.10;99.90;;;;;;5047089;28;20124;-78
2022/04/07 06:01:57;;;;;;;4.90;1.45;;;6.10;99.90;;;;;;5050025;28;20255;-80
2022/04/07 06:04:23;;;;;;;3.13;1.55;;;6.10;99.90;;;;;;5072124;28;20051;-79
2022/04/07 06:06:49;;;;;;;1.27;0.85;;;6.00;99.90;;;;;;5070469;28;20101;-78
2022/04/07 06:09:14;;;;;;;0.68;0.68;;;6.00;99.90;;;;;;5069368;28;20503;-82
2022/04/07 06:11:40;;;;;;;3.85;0.90;;;5.90;99.90;;;;;;5054420;28;20043;-79
2022/04/07 06:14:06;;;;;;;1.15;0.90;;;5.80;99.90;;;;;;5054279;28;20039;-77
2022/04/07 06:16:32;;;;;;;0.50;0.50;;;5.80;99.90;;;;;;5044988;28;20064;-82
2022/04/07 06:18:57;;;;;;;2.22;1.05;;;5.70;99.90;;;;;;5070564;28;20044;-80
2022/04/07 06:21:24;;;;;;;8.38;2.00;;;5.60;99.90;;;;;;5067884;28;20123;-81
2022/04/07 06:23:50;;;;;;;;;;;5.50;99.90;;;;;;5072806;28;20093;-81
2022/04/07 06:26:18;;;;;;;1.20;0.98;;;5.50;99.90;;;;;;5056034;28;19920;-84
2022/04/07 06:28:44;;;;;;;0.63;0.63;;;5.40;99.90;;;;;;5053843;28;20036;-81
2022/04/07 06:31:10;;;;;;;1.52;1.08;;;5.60;99.90;;;;;;5053831;28;20044;-81
2022/04/07 06:33:36;;;;;;;7.75;0.90;;;5.30;99.90;;;;;;5010637;28;20363;-83
2022/04/07 06:36:05;;;;;;;2.80;1.38;;;5.30;99.90;;;;;;5055202;28;20821;-79
2022/04/07 06:38:31;;;;;;;0.55;0.55;;;5.20;99.90;;;;;;5073051;28;20036;-84
2022/04/07 06:41:01;;;;;;;0.77;0.77;;;5.30;99.90;;;;;;5039631;28;20044;-79
2022/04/07 06:43:27;;;;;;;0.45;0.45;;;5.90;99.90;;;;;;5060358;28;20044;-80
2022/04/07 06:45:53;;;;;;;0.57;0.57;;;5.20;99.90;;;;;;5079869;28;20032;-82
2022/04/07 06:48:18;;;;;;;1.90;0.90;;;5.20;99.90;;;;;;5071362;28;20497;-78
2022/04/07 06:50:50;;;;;;;0.98;0.90;;;5.20;99.90;;;;;;5059899;28;20063;-80
2022/04/07 06:53:16;;;;;;;0.45;0.45;;;5.20;99.90;;;;;;5053027;28;20040;-78
2022/04/07 06:55:43;;;;;;;;;;;5.20;99.90;;;;;;5062567;28;20382;-77
2022/04/07 06:58:11;;;;;;;2.45;1.02;;;5.20;99.90;;;;;;5022241;28;19969;-79
2022/04/07 07:00:45;;;;;;;0.75;0.75;;;5.20;99.90;;;;;;5046978;28;20353;-75
2022/04/07 07:03:16;;;;;;;0.55;0.55;;;5.30;99.90;;;;;;5078918;28;20041;-77
2022/04/07 07:05:42;;;;;;;0.50;0.50;;;5.30;99.90;;;;;;5061948;28;20094;-78
2022/04/07 07:08:21;;;;;;;0.90;0.88;;;5.30;99.90;;;;;;5060763;28;20044;-79
2022/04/07 07:10:49;;;;;;;0.85;0.80;;;5.40;99.90;;;;;;5067831;28;20067;-77
2022/04/07 07:13:20;;;;;;;4.10;1.20;;;5.40;99.90;;;;;;5064467;28;20041;-78
2022/04/07 07:15:47;;;;;;;0.63;0.63;;;5.40;99.90;;;;;;5062108;28;20056;-76
2022/04/07 07:18:19;;;;;;;1.10;1.00;;;5.40;99.90;;;;;;5068389;28;20094;-76
2022/04/07 07:20:46;;;;;;;2.38;1.23;;;5.40;99.90;;;;;;5067003;28;20036;-77
2022/04/07 07:23:12;;;;;;;0.82;0.82;;;5.50;99.90;;;;;;5051378;28;20036;-78
2022/04/07 07:25:38;;;;;;;0.75;0.75;;;5.50;99.90;;;;;;5073878;28;20484;-76
2022/04/07 07:28:04;;;;;;;0.50;0.50;;;5.60;99.90;;;;;;5052924;28;20457;-78
2022/04/07 07:30:30;;;;;;;0.73;0.73;;;5.60;99.90;;;;;;5066518;28;20045;-79
2022/04/07 07:32:56;;;;;;;1.63;0.98;;;5.60;99.90;;;;;;5064012;28;20035;-75
2022/04/07 07:35:23;;;;;;;3.05;1.70;;;5.60;99.90;;;;;;5055840;28;20048;-77
2022/04/07 07:38:01;;;;;;;1.15;0.93;;;5.60;99.90;;;;;;5050564;28;20402;-79
2022/04/07 07:40:29;;;;;;;1.30;0.95;;;5.60;99.90;;;;;;5059912;28;20036;-78
2022/04/07 07:42:57;;;;;;;0.73;0.73;;;5.60;99.90;;;;;;5055939;28;20041;-78
2022/04/07 07:45:24;;;;;;;2.05;0.70;;;5.70;99.90;;;;;;5068802;28;20060;-79
2022/04/07 07:47:52;;;;;;;1.15;1.08;;;5.60;99.90;;;;;;5058321;28;20506;-78
2022/04/07 07:50:19;;;;;;;0.50;0.50;;;5.70;99.90;;;;;;5033329;28;20037;-79
2022/04/07 07:52:44;;;;;;;5.63;0.98;;;5.60;99.90;;;;;;5050757;28;20036;-79
2022/04/07 07:55:11;;;;;;;2.80;0.93;;;5.30;99.90;;;;;;5058204;28;20135;-77
2022/04/07 07:57:37;;;;;;;2.60;1.25;;;5.60;99.90;;;;;;5064308;28;20032;-77
2022/04/07 08:00:07;;;;;;;4.28;0.98;;;5.70;99.90;;;;;;5063107;28;20036;-78
2022/04/07 08:02:34;;;;;;;1.13;1.08;;;5.80;99.90;;;;;;5081458;28;20043;-77
2022/04/07 08:05:04;;;;;;;2.20;1.00;;;6.00;99.90;;;;;;5068871;28;20052;-77
2022/04/07 08:07:32;;;;;;;1.15;0.82;;;6.20;99.90;;;;;;5053794;28;20036;-79
2022/04/07 08:10:01;;;;;;;3.28;1.23;;;6.40;99.90;;;;;;5070423;28;20044;-77
2022/04/07 08:12:27;;;;;;;1.23;0.80;;;6.50;99.90;;;;;;5023402;28;20032;-77
2022/04/07 08:14:54;;;;;;;4.25;1.52;;;6.50;99.90;;;;;;5045008;28;20035;-77
2022/04/07 08:17:21;;;;;;;0.70;0.70;;;6.40;99.90;;;;;;5083542;28;20047;-76
2022/04/07 08:19:47;;;;;;;1.27;1.00;;;6.40;99.90;;;;;;5065707;28;20489;-76
2022/04/07 08:22:13;;;;;;;1.65;0.80;;;6.50;99.90;;;;;;5038113;28;20117;-81
2022/04/07 08:24:39;;;;;;;1.05;0.93;;;6.70;99.90;;;;;;5020309;28;20407;-77
2022/04/07 08:27:06;;;;;;;2.85;1.45;;;6.80;99.90;;;;;;5049279;28;20036;-77
2022/04/07 08:29:33;;;;;;;2.05;0.85;;;6.90;99.90;;;;;;5074219;28;20036;-76
2022/04/07 08:32:00;;;;;;;1.10;1.00;;;7.10;99.90;;;;;;5065781;28;20041;-75
2022/04/07 08:34:26;;;;;;;0.65;0.65;;;7.20;99.90;;;;;;5049749;28;20040;-78
2022/04/07 08:36:53;;;;;;;6.40;1.33;;;7.40;99.90;;;;;;5048133;28;20040;-81
2022/04/07 08:39:21;;;;;;;0.57;0.57;;;7.50;99.90;;;;;;5065342;28;20041;-77
2022/04/07 08:41:48;;;;;;;0.85;0.77;;;7.70;99.90;;;;;;5045852;28;20045;-77
2022/04/07 08:44:17;;;;;;;1.00;0.93;;;7.80;99.90;;;;;;5063532;28;20040;-77
2022/04/07 08:46:53;;;;;;;5.68;1.17;;;8.00;99.90;;;;;;5062429;28;20041;-77
2022/04/07 08:49:24;;;;;;;0.60;0.60;;;8.10;99.90;;;;;;5058824;28;20484;-79
2022/04/07 08:51:53;;;;;;;1.85;1.05;;;8.20;99.90;;;;;;5049812;28;20051;-82
2022/04/07 08:54:20;;;;;;;3.53;0.95;;;8.40;99.90;;;;;;5036067;28;20036;-77
2022/04/07 08:56:47;;;;;;;0.80;0.80;;;8.60;99.90;;;;;;5071881;28;20044;-76
2022/04/07 08:59:13;;;;;;;1.15;1.05;;;8.70;99.90;;;;;;5063307;28;20048;-77
2022/04/07 09:01:38;;;;;;;4.30;1.45;;;8.90;99.90;;;;;;5067387;28;20033;-80
2022/04/07 09:04:04;;;;;;;1.08;0.95;;;9.00;99.90;;;;;;5069366;28;20056;-78
2022/04/07 09:06:34;;;;;;;2.22;0.85;;;9.00;99.90;;;;;;5069349;28;20348;-77
2022/04/07 09:09:17;;;;;;;1.13;1.02;;;9.00;99.90;;;;;;5051441;28;20083;-79
2022/04/07 09:11:43;;;;;;;3.05;1.67;;;9.00;99.90;;;;;;5059041;28;20136;-77
2022/04/07 09:14:10;;;;;;;2.25;1.08;;;9.10;99.90;;;;;;5052821;28;20036;-76
2022/04/07 09:16:38;;;;;;;1.13;0.98;;;9.10;99.90;;;;;;5072970;28;20136;-79
2022/04/07 09:19:05;;;;;;;2.22;1.20;;;9.20;99.90;;;;;;5055974;28;20058;-76
2022/04/07 09:21:31;;;;;;;0.85;0.70;;;9.20;99.90;;;;;;5072780;28;20089;-76
2022/04/07 09:23:58;;;;;;;;;;;9.30;99.90;;;;;;5056210;28;20049;-76
2022/04/07 09:26:24;;;;;;;2.00;1.17;;;9.40;99.90;;;;;;5056935;28;20019;-75
2022/04/07 09:28:55;;;;;;;4.07;1.30;;;9.40;99.90;;;;;;5072418;28;20040;-77
2022/04/07 09:31:24;;;;;;;3.92;1.20;;;9.60;99.90;;;;;;5055410;28;20119;-77
2022/04/07 09:33:54;;;;;;;0.77;0.55;;;9.80;99.90;;;;;;5072793;28;20123;-78
2022/04/07 09:36:21;;;;;;;4.82;1.90;;;9.80;99.90;;;;;;5072763;28;20453;-77
2022/04/07 09:38:52;;;;;;;0.73;0.73;;;10.00;99.90;;;;;;5072496;28;20394;-80
2022/04/07 09:41:21;;;;;;;2.67;1.33;;;10.10;99.90;;;;;;5073184;28;20172;-79
2022/04/07 09:43:49;;;;;;;1.70;0.98;;;10.10;99.90;;;;;;5052468;28;20556;-78
2022/04/07 09:46:17;;;;;;;1.17;0.95;;;10.10;99.90;;;;;;5046842;28;20454;-78
2022/04/07 09:49:03;;;;;;;3.22;0.60;;;10.10;99.90;;;;;;5073024;28;20036;-78
2022/04/07 09:51:35;;;;;;;3.30;1.10;;;10.10;99.90;;;;;;5066565;28;20041;-79
2022/04/07 09:54:03;;;;;;;0.45;0.32;;;10.10;99.90;;;;;;5071856;28;20045;-76
2022/04/07 09:56:28;;;;;;;2.10;1.23;;;10.10;99.90;;;;;;5058753;28;20076;-75
2022/04/07 09:58:55;;;;;;;1.40;0.90;;;10.00;99.90;;;;;;5064750;28;20049;-78
2022/04/07 10:01:22;;;;;;;1.05;0.93;;;9.60;99.90;;;;;;5052092;28;20052;-77
2022/04/07 10:03:50;;;;;;;3.60;0.93;;;9.00;99.90;;;;;;5072487;28;20117;-77
2022/04/07 10:06:17;;;;;;;6.32;1.30;;;8.60;99.90;;;;;;5044232;28;20041;-77
2022/04/07 10:08:52;;;;;;;3.40;1.40;;;8.30;99.90;;;;;;5068674;28;20119;-80
2022/04/07 10:11:18;;;;;;;0.77;0.70;;;8.10;99.90;;;;;;5055181;28;20037;-78
2022/04/07 10:13:46;;;;;;;1.65;1.05;;;7.80;99.90;;;;;;5055360;28;20065;-77
2022/04/07 10:16:17;;;;;;;5.40;1.55;;;7.60;99.90;;;;;;5084497;28;20063;-79
2022/04/07 10:19:07;;;;;;;3.15;1.30;;;7.60;99.90;;;;;;5062086;28;20477;-78
2022/04/07 10:21:45;;;;;;;0.75;0.75;;;7.70;99.90;;;;;;5078287;28;20073;-78
2022/04/07 10:24:33;;;;;;;5.07;1.92;;;8.00;99.90;;;;;;5055329;28;20055;-77
2022/04/07 10:27:08;;;;;;;5.32;1.20;;;8.30;99.90;;;;;;5083615;28;20044;-77
2022/04/07 10:29:34;;;;;;;4.20;1.15;;;8.30;99.90;;;;;;5068770;28;20094;-77
2022/04/07 10:32:12;;;;;;;1.20;0.95;;;8.00;99.90;;;;;;5070354;28;20374;-78
2022/04/07 10:34:42;;;;;;;2.40;1.20;;;7.20;99.90;;;;;;5091950;28;20477;-78
2022/04/07 10:37:09;;;;;;;3.13;1.23;;;6.80;99.90;;;;;;5057462;28;20044;-74
2022/04/07 10:39:40;;;;;;;0.65;0.65;;;6.70;99.90;;;;;;5070471;28;20040;-77
2022/04/07 10:42:09;;;;;;;2.35;1.27;;;6.70;99.90;;;;;;5042410;28;20439;-78
2022/04/07 10:44:36;;;;;;;2.10;1.33;;;6.90;99.90;;;;;;5064488;28;20040;-77
2022/04/07 10:47:07;;;;;;;2.47;1.65;;;7.10;99.90;;;;;;5052890;28;20514;-76
2022/04/07 10:49:33;;;;;;;7.68;1.25;;;7.30;99.90;;;;;;5071311;28;20119;-76
2022/04/07 10:52:04;;;;;;;5.55;2.13;;;7.50;99.90;;;;;;5061574;28;20146;-76
2022/04/07 10:54:30;;;;;;;3.55;1.40;;;7.60;99.90;;;;;;5063140;28;20567;-77
2022/04/07 10:56:59;;;;;;;17.17;1.88;;;7.70;99.90;;;;;;5084631;28;20040;-76
2022/04/07 10:59:43;;;;;;;3.60;1.73;;;7.70;99.90;;;;;;5071191;28;20478;-77
2022/04/07 11:02:11;;;;;;;3.00;1.15;;;7.80;99.90;;;;;;5043728;28;20079;-79
2022/04/07 11:04:42;;;;;;;1.02;1.00;;;7.90;99.90;;;;;;5091337;28;20064;-75
2022/04/07 11:07:18;;;;;;;1.83;1.02;;;7.90;99.90;;;;;;5057985;28;20041;-77
2022/04/07 11:10:05;;;;;;;2.92;0.82;;;8.10;99.90;;;;;;5065651;28;20044;-80
2022/04/07 11:12:33;;;;;;;6.75;1.73;;;8.20;99.90;;;;;;5055941;28;20120;-77
2022/04/07 11:15:02;;;;;;;6.03;1.85;;;8.30;99.90;;;;;;5082252;28;20093;-81
2022/04/07 11:17:44;;;;;;;5.90;1.35;;;8.40;99.90;;;;;;5072849;28;20127;-76
2022/04/07 11:20:09;;;;;;;3.97;2.10;;;8.30;99.90;;;;;;5079666;28;20113;-78
2022/04/07 11:22:50;;;;;;;5.90;2.40;;;8.20;99.90;;;;;;5069565;28;20458;-79
2022/04/07 11:25:45;;;;;;;3.67;1.60;;;8.20;99.90;;;;;;5053939;28;20120;-77
2022/04/07 11:28:17;;;;;;;3.70;1.88;;;8.20;99.90;;;;;;5065588;28;20080;-77
2022/04/07 11:30:51;;;;;;;3.53;1.67;;;8.40;99.90;;;;;;5053955;28;20076;-79
2022/04/07 11:33:20;;;;;;;7.75;1.65;;;8.60;99.90;;;;;;5070206;28;20054;-79
2022/04/07 11:36:09;;;;;;;1.10;0.98;;;8.60;99.90;;;;;;5057578;28;20048;-77
2022/04/07 11:38:42;;;;;;;7.22;1.90;;;8.70;99.90;;;;;;5071568;28;20048;-77
2022/04/07 11:41:11;;;;;;;8.02;2.28;;;8.90;99.90;;;;;;5070294;28;20430;-76
2022/04/07 11:43:40;;;;;;;5.47;2.03;;;8.90;99.90;;;;;;5085390;28;20052;-77
2022/04/07 11:46:06;;;;;;;4.90;2.08;;;9.00;99.90;;;;;;5069806;28;20055;-78
2022/04/07 11:48:41;;;;;;;4.47;2.13;;;9.00;99.90;;;;;;5086013;28;20071;-77
2022/04/07 11:51:17;;;;;;;3.45;1.38;;;9.10;99.90;;;;;;5044749;28;20482;-79
2022/04/07 11:53:51;;;;;;;3.45;1.42;;;9.10;99.90;;;;;;5069324;28;20090;-79
2022/04/07 11:56:25;;;;;;;6.38;1.88;;;9.10;99.90;;;;;;5083769;28;20051;-80
2022/04/07 11:58:57;;;;;;;5.55;2.15;;;9.20;99.90;;;;;;5078809;28;20078;-77
2022/04/07 12:01:24;;;;;;;4.75;1.60;;;9.30;99.90;;;;;;5059871;28;20051;-79
2022/04/07 12:04:00;;;;;;;3.40;1.40;;;9.40;99.90;;;;;;5073169;28;20493;-77
2022/04/07 12:06:37;;;;;;;3.20;1.20;;;9.50;99.90;;;;;;5070918;28;20462;-78
2022/04/07 12:09:08;;;;;;;7.85;1.52;;;9.60;99.90;;;;;;5065286;28;20043;-75
2022/04/07 12:11:36;;;;;;;1.23;0.93;;;9.70;99.90;;;;;;5070228;28;20033;-80
2022/04/07 12:14:08;;;;;;;7.10;1.88;;;10.00;99.90;;;;;;5070738;28;20124;-78
2022/04/07 12:16:52;;;;;;;5.32;1.58;;;10.20;99.90;;;;;;5045535;28;20061;-78
2022/04/07 12:19:19;;;;;;;0.85;0.63;;;10.40;99.90;;;;;;5051333;28;20477;-77
2022/04/07 12:21:57;;;;;;;5.82;1.95;;;10.40;99.90;;;;;;5052607;28;20515;-77
2022/04/07 12:24:26;;;;;;;6.22;1.50;;;10.40;99.90;;;;;;5070953;28;20068;-76
2022/04/07 12:26:53;;;;;;;5.85;2.20;;;10.30;99.90;;;;;;5059513;28;20053;-82
2022/04/07 12:29:30;;;;;;;6.20;2.08;;;10.00;99.90;;;;;;5069840;28;20385;-80
2022/04/07 12:32:09;;;;;;;2.33;1.30;;;9.60;99.90;;;;;;5070472;28;20503;-80
2022/04/07 12:34:51;;;;;;;3.60;2.00;;;8.70;99.90;;;;;;5046766;28;20106;-77
2022/04/07 12:37:30;;;;;;;5.43;1.23;;;7.80;99.90;;;;;;5072848;28;20048;-79
2022/04/07 12:39:57;;;;;;;0.77;0.75;;;7.10;99.90;;;;;;5072792;28;20044;-78
2022/04/07 12:42:23;;;;;;;2.38;1.20;;;6.70;99.90;;;;;;5070361;28;20053;-79
2022/04/07 12:44:49;;;;;;;2.05;1.10;;;6.60;99.90;;;;;;5049459;28;20052;-77
2022/04/07 12:47:17;;;;;;;1.20;1.10;;;6.60;99.90;;;;;;5050821;28;20041;-79
2022/04/07 12:49:54;;;;;;;2.67;0.95;;;6.80;99.90;;;;;;5053106;28;20047;-78
2022/04/07 12:52:21;;;;;;;4.95;1.15;;;7.20;99.90;;;;;;5062184;28;20040;-80
2022/04/07 12:55:04;;;;;;;2.63;1.30;;;7.60;99.90;;;;;;5050492;28;20056;-81
2022/04/07 12:57:41;;;;;;;2.65;1.33;;;8.20;99.90;;;;;;5070158;28;20143;-78
2022/04/07 13:00:10;;;;;;;5.38;2.08;;;8.40;99.90;;;;;;5078877;28;20406;-79
2022/04/07 13:02:49;;;;;;;5.85;2.63;;;8.50;99.90;;;;;;5080940;28;20083;-79
2022/04/07 13:05:29;;;;;;;6.35;1.65;;;8.50;99.90;;;;;;5050386;28;20102;-80
2022/04/07 13:08:00;;;;;;;0.75;0.75;;;8.40;99.90;;;;;;5039925;28;20040;-79